Randolph, WI (53957)

11:00 AM CST on February 01, 2015 (GMT -0600)
APRSWXNET Cambria WI US | Change Station
CLOSE
Current Station
Personal Weather Station
Location: Cambria, WI
Elevation: 944 ft
Nearby Weather Stations
Active Advisory: Winter Weather Advisory

Elev 944 ft 43.54 °N, 89.11 °W | Updated 25 minutes ago

Snow
Snow
14 °F
Feels Like 6 °F
N
5
Wind Variable Wind from NNE
Gusts 19.0 mph

Today
High -- | Low -- °F
--% Chance of Precip.
Yesterday
High -- | Low -- °F
Precip. -- in
7:12 AM 5:07 PM
Waxing Gibbous, 95% visible
Pressure 30.05 in
Visibility 1.5 miles
Clouds Overcast 1200 ft
Windchill 6 °F
Dew Point 11 °F
Humidity 87%
Rainfall 0.05 in
Snow Depth Not available.
UV 1 out of 12
Pollen .10 out of 12
Air Quality Not available.
Flu Activity Not available.
METAR KUNU 011635Z AUTO 02012G21KT 1 1/2SM -SN OVC012 M08/M10 A3005 RMK AO2 T10801096

More Conditions Fewer Conditions

Pressure 30.05 in
Visibility 1.5 miles
Clouds Overcast 1200 ft
Windchill 6 °F
Dew Point 11 °F
Humidity 87%
Rainfall 0.05 in
Snow Depth Not available.
UV 1 out of 12
Pollen .10 out of 12
Air Quality Not available.
Flu Activity Not available.
METAR KUNU 011635Z AUTO 02012G21KT 1 1/2SM -SN OVC012 M08/M10 A3005 RMK AO2 T10801096

More Conditions Fewer Conditions

10-Day Weather Forecast

Almanac

Astronomy

Feb. 01, 2015 Rise Set
Actual Time
Civil Twilight
Nautical Twilight
Astronomical Twilight
Moon
Length of Visible Light
Length of Day
Tomorrow will be .
, % of the Moon is Illuminated

Today's Extremes

State Highs State Lows

Community

WunderPhotos

Upload Photos

1,792,392 photos uploaded!

WunderBlogs® & News

Nearby

Air Quality

  Air Quality AQ Index Pollutant
Not available.

Snow Depth

Station Depth Elevation

Earthquake Activity

City Distance Mag. Time & Date
Minimum magnitude displayed is 2.5.

Coastal Water Temperatures

Place Temperature

Nearby Weather Stations